Flight Track Log - Related Links

Times and Time Zones

All times are in EDT time to prevent confusion due to time zone crossing. See the SKW4566 flight status page for this flight to view local times or setup timezone preferences in your user account.

Time Position Orientation Groundspeed Altitude Reporting Facility
EDT Latitude Longitude Course Direction KTS MPH feet Rate Location/Type
Sun 11:51:23 PM 40.7667 -111.9958 328° Northwest 188 216 5,000  Level Salt Lake Center
Sun 11:51:36 PM 40.7597 -111.9956 178° South 171 197 5,400 1,909 Climbing Salt Lake Center
Sun 11:52:29 PM 40.7397 -112.0558 246° West 220 253 7,100 2,098 Climbing Salt Lake Center
Sun 11:53:39 PM 40.7739 -112.1450 297° West 243 280 9,700 1,969 Climbing Salt Lake Center
Sun 11:54:00 PM 40.9201 -112.3547 343° North  Level FlightAware Approximate
Sun 11:54:40 PM 40.8083 -112.2422 295° West 297 342 11,400  Level Salt Lake Center
Sun 11:55:00 PM 41.0180 -112.3939 343° North  Level FlightAware Approximate
Sun 11:55:41 PM 40.8531 -112.3417 301° West 313 360 13,500  Level Salt Lake Center
Sun 11:56:00 PM 41.1096 -112.4524 328° Northwest  Level FlightAware Approximate
Sun 11:56:42 PM 40.8992 -112.4458 300° West 327 376 15,700  Level Salt Lake Center
Sun 11:57:43 PM 40.9453 -112.5472 301° West 322 371 17,400 1,475 Climbing Salt Lake Center
Sun 11:58:44 PM 40.9928 -112.6544 300° West 340 391 18,700 1,512 Climbing Salt Lake Center
Sun 11:59:46 PM 41.0397 -112.7614 300° West 338 389 20,500 1,268 Climbing Salt Lake Center
Mon 12:00:47 AM 41.0878 -112.8708 300° West 342 394 21,300 836 Climbing Salt Lake Center
Mon 12:01:48 AM 41.1369 -112.9836 300° West 350 403 22,200 836 Climbing Salt Lake Center
Mon 12:02:49 AM 41.1981 -113.1228 300° West 361 415 23,000 738 Climbing Salt Lake Center
Mon 12:03:50 AM 41.2481 -113.2406 299° West 365 420 23,700 683 Climbing Salt Lake Center
Mon 12:04:52 AM 41.2994 -113.3606 300° West 367 422 24,400 732 Climbing Salt Lake Center
Mon 12:05:53 AM 41.3531 -113.4806 301° West 374 430 25,200 689 Climbing Salt Lake Center
Mon 12:06:54 AM 41.4056 -113.6014 300° West 376 433 25,800 689 Climbing Salt Lake Center
Mon 12:07:55 AM 41.4572 -113.7228 300° West 376 433 26,600 732 Climbing Salt Lake Center
Mon 12:08:57 AM 41.5103 -113.8469 300° West 381 438 27,300 683 Climbing Salt Lake Center
Mon 12:09:58 AM 41.5622 -113.9708 299° West 381 438 28,000 689 Climbing Salt Lake Center
Mon 12:10:59 AM 41.6144 -114.0939 300° West 381 438 28,700 689 Climbing Salt Lake Center
Mon 12:12:00 AM 41.6664 -114.2153 300° West 380 437 29,400 738 Climbing Salt Lake Center
Mon 12:13:01 AM 41.7278 -114.3622 299° West 379 436 30,200 732 Climbing Salt Lake Center
Mon 12:14:03 AM 41.7778 -114.4817 299° West 374 430 30,900 683 Climbing Salt Lake Center
Mon 12:15:04 AM 41.8278 -114.6028 299° West 364 419 31,600 541 Climbing Salt Lake Center
Mon 12:16:05 AM 41.8753 -114.7156 300° West 361 415 32,000 197 Climbing Salt Lake Center
Mon 12:17:06 AM 41.9217 -114.8292 299° West 363 418 32,000  Level Salt Lake Center
Mon 12:18:08 AM 41.9778 -114.9650 299° West 374 430 32,000  Level Salt Lake Center
Mon 12:19:09 AM 42.0261 -115.0833 299° West 377 434 32,000  Level Salt Lake Center
Mon 12:20:10 AM 42.0753 -115.2053 299° West 384 442 32,000  Level Salt Lake Center
Mon 12:21:12 AM 42.1328 -115.3486 298° West 383 441 32,000  Level Salt Lake Center
Mon 12:22:13 AM 42.1833 -115.4719 299° West 378 435 32,000  Level Salt Lake Center
Mon 12:23:14 AM 42.2322 -115.5961 298° West 376 433 32,000  Level Salt Lake Center
Mon 12:24:15 AM 42.2814 -115.7192 298° West 375 432 32,000  Level Salt Lake Center
Mon 12:25:17 AM 42.3317 -115.8433 299° West 375 432 32,000  Level Salt Lake Center
Mon 12:26:18 AM 42.3806 -115.9683 298° West 376 433 32,000  Level Salt Lake Center
Mon 12:27:19 AM 42.4300 -116.0933 298° West 376 433 32,000  Level Salt Lake Center
Mon 12:28:20 AM 42.4794 -116.2194 298° West 377 434 32,000  Level Salt Lake Center
Mon 12:29:22 AM 42.5289 -116.3447 298° West 377 434 32,000  Level Salt Lake Center
Mon 12:30:23 AM 42.5875 -116.4978 298° West 378 435 32,000  Level Salt Lake Center
Mon 12:31:24 AM 42.6378 -116.6242 298° West 379 436 32,000  Level Salt Lake Center
Mon 12:32:26 AM 42.6864 -116.7531 297° West 380 437 32,000  Level Salt Lake Center
Mon 12:33:27 AM 42.7361 -116.8819 298° West 382 440 32,000  Level Salt Lake Center
Mon 12:34:28 AM 42.7853 -117.0108 297° West 383 441 32,000  Level Salt Lake Center
Mon 12:35:29 AM 42.8356 -117.1411 298° West 386 444 32,000  Level Salt Lake Center
Mon 12:36:31 AM 42.8844 -117.2717 297° West 386 444 32,000  Level Salt Lake Center
Mon 12:37:32 AM 42.9342 -117.4039 297° West 387 445 32,000  Level Salt Lake Center
Mon 12:38:33 AM 42.9836 -117.5356 297° West 389 448 32,000  Level Salt Lake Center
Mon 12:39:34 AM 43.0328 -117.6675 297° West 389 448 32,000  Level Salt Lake Center
Mon 12:40:36 AM 43.0925 -117.8275 297° West 392 451 32,000  Level Salt Lake Center
Mon 12:41:37 AM 43.1411 -117.9606 297° West 392 451 32,000  Level Salt Lake Center
Mon 12:42:38 AM 43.1911 -118.0944 297° West 393 452 32,000  Level Salt Lake Center
Mon 12:43:39 AM 43.2397 -118.2272 297° West 392 451 32,000  Level Salt Lake Center
Mon 12:44:40 AM 43.2858 -118.3525 297° West 392 451 32,000  Level Salt Lake Center
Mon 12:45:41 AM 43.3347 -118.4856 297° West 392 451 32,000  Level Salt Lake Center
Mon 12:46:43 AM 43.3833 -118.6206 296° West 392 451 32,000  Level Salt Lake Center
Mon 12:47:44 AM 43.4314 -118.7558 296° West 393 452 32,000  Level Salt Lake Center
Mon 12:48:45 AM 43.4803 -118.8894 297° West 393 452 32,000  Level Salt Lake Center
Mon 12:49:46 AM 43.5381 -119.0519 296° West 393 452 32,000  Level Salt Lake Center
Mon 12:50:26 AM 43.5672 -119.1331 296° West 394 453 32,000  Level Seattle Center
Mon 12:51:27 AM 43.6161 -119.2708 296° West 397 457 32,000 -149 Level Seattle Center
Mon 12:52:27 AM 43.6642 -119.4089 296° West 398 458 31,700 -893 Descending Seattle Center
Mon 12:53:28 AM 43.7158 -119.5547 296° West 418 481 30,200 -1,525 Descending Seattle Center
Mon 12:54:29 AM 43.7667 -119.7075 295° West 432 497 28,600 -2,083 Descending Seattle Center
Mon 12:55:29 AM 43.8167 -119.8489 296° West 413 475 26,000 -2,579 Descending Seattle Center
Mon 12:56:30 AM 43.8617 -119.9836 295° West 392 451 23,400 -2,656 Descending Seattle Center
Mon 12:57:31 AM 43.9119 -120.1250 296° West 399 459 20,600 -2,727 Descending Seattle Center
Mon 12:58:31 AM 43.9581 -120.2611 295° West 393 452 17,900 -2,777 Descending Seattle Center
Mon 12:59:32 AM 44.0033 -120.3928 296° West 381 438 15,000 -2,164 Descending Seattle Center
Mon 01:00:33 AM 44.0444 -120.5172 295° West 363 418 13,500 -1,537 Descending Seattle Center
Mon 01:01:33 AM 44.0825 -120.6311 295° West 335 386 11,900 -1,636 Descending Seattle Center
Mon 01:02:34 AM 44.1194 -120.7417 295° West 321 369 10,200 -1,082 Descending Seattle Center
Mon 01:03:35 AM 44.1697 -120.8253 310° West 285 328 9,700 -1,091 Descending Seattle Center
Mon 01:04:35 AM 44.2189 -120.8933 315° West 255 293 8,000 -1,537 Descending Seattle Center
Mon 01:05:36 AM 44.2761 -120.9733 315° West 252 290 6,600 -1,438 Descending Seattle Center
Mon 01:06:36 AM 44.2994 -121.0342 298° West 206 237 5,100 -1,500 Descending Seattle Center

Login

Don't have an account? Register now (free) for customized features, flight alerts, and more!